Time;durP1;ratioP1;P1;durP2;ratioP2;P2;SDS_P1;SDS_P2;PMS_P1;PMS_P2;Temp;Humidity;BMP_temperature;BMP_pressure;BME280_temperature;BME280_humidity;BME280_pressure;Samples;Min_cycle;Max_cycle;Signal;HPM_P1;HPM_P2
2024/02/23 00:01:03;;;;;;;;;;;;;;;5.48;100.00;98679.75;5071693;28;21070;-77
2024/02/23 00:03:28;;;;;;;;;;;;;;;5.48;100.00;98669.38;5071144;28;19932;-77
2024/02/23 00:05:54;;;;;;;;;;;;;;;5.46;100.00;98671.22;5074405;28;19916;-77
2024/02/23 00:08:19;;;;;;;;;;;;;;;5.44;100.00;98660.03;5074677;28;19916;-77
2024/02/23 00:10:44;;;;;;;;;;;;;;;5.40;100.00;98674.94;5089584;28;19926;-77
2024/02/23 00:13:09;;;;;;;;;;;;;;;5.43;100.00;98677.38;5094314;28;19916;-77
2024/02/23 00:15:35;;;;;;;;;;;;;;;5.44;100.00;98684.28;5095136;28;19916;-77
2024/02/23 00:18:03;;;;;;;;;;;;;;;5.42;100.00;98675.72;5065771;28;19917;-77
2024/02/23 00:20:28;;;;;;;;;;;;;;;5.46;100.00;98682.44;5074557;28;20135;-77
2024/02/23 00:22:53;;;;;;;;;;;;;;;5.49;100.00;98691.78;5075011;28;20196;-77
2024/02/23 00:25:19;;;;;;;;;;;;;;;5.44;100.00;98705.03;5074699;28;19939;-77
2024/02/23 00:27:44;;;;;;;;;;;;;;;5.26;100.00;98708.63;5075168;28;19916;-77
2024/02/23 00:30:10;;;;;;;;;;;;;;;5.14;100.00;98705.72;5075488;28;19924;-78
2024/02/23 00:32:35;;;;;;;;;;;;;;;5.06;100.00;98702.72;5075441;28;19961;-77
2024/02/23 00:35:00;;;;;;;;;;;;;;;4.99;100.00;98693.56;5075228;28;19916;-78
2024/02/23 00:37:26;;;;;;;;;;;;;;;4.94;100.00;98706.75;5075309;28;19917;-78
2024/02/23 00:39:51;;;;;;;;;;;;;;;4.92;100.00;98708.59;5082406;28;20193;-77
2024/02/23 00:42:16;;;;;;;;;;;;;;;4.91;100.00;98717.31;5095723;28;19950;-79
2024/02/23 00:44:41;;;;;;;;;;;;;;;4.92;100.00;98718.97;5095870;28;19916;-78
2024/02/23 00:47:07;;;;;;;;;;;;;;;4.95;100.00;98730.97;5092465;28;19987;-78
2024/02/23 00:49:32;;;;;;;;;;;;;;;4.91;100.00;98745.84;5075108;28;19920;-78
2024/02/23 00:51:57;;;;;;;;;;;;;;;4.98;100.00;98728.19;5076239;28;19920;-78
2024/02/23 00:54:22;;;;;;;;;;;;;;;4.97;100.00;98739.50;5079077;28;19917;-78
2024/02/23 00:56:48;;;;;;;;;;;;;;;4.92;100.00;98726.75;5078948;28;19916;-78
2024/02/23 00:59:13;;;;;;;;;;;;;;;4.80;100.00;98720.44;5078673;28;19916;-78
2024/02/23 01:01:38;;;;;;;;;;;;;;;4.75;100.00;98729.38;5078644;28;19920;-78
2024/02/23 01:04:03;;;;;;;;;;;;;;;4.74;100.00;98732.88;5078304;28;19916;-78
2024/02/23 01:06:29;;;;;;;;;;;;;;;4.80;100.00;98740.34;5078598;28;20219;-77
2024/02/23 01:08:54;;;;;;;;;;;;;;;4.84;100.00;98743.63;5077705;28;19916;-78
2024/02/23 01:11:19;;;;;;;;;;;;;;;4.82;100.00;98754.09;5098665;28;20092;-77
2024/02/23 01:13:44;;;;;;;;;;;;;;;4.84;100.00;98760.03;5099128;28;19953;-77
2024/02/23 01:16:10;;;;;;;;;;;;;;;4.88;100.00;98764.16;5098464;28;19908;-77
2024/02/23 01:18:35;;;;;;;;;;;;;;;4.91;100.00;98753.63;5083263;28;19917;-77
2024/02/23 01:21:00;;;;;;;;;;;;;;;4.92;100.00;98759.66;5077815;28;19961;-77
2024/02/23 01:23:25;;;;;;;;;;;;;;;4.94;100.00;98766.41;5059395;28;19916;-77
2024/02/23 01:25:50;;;;;;;;;;;;;;;4.93;100.00;98776.88;5077135;28;19916;-78
2024/02/23 01:28:16;;;;;;;;;;;;;;;4.91;100.00;98782.16;5077754;28;19943;-77
2024/02/23 01:30:41;;;;;;;;;;;;;;;4.90;100.00;98780.47;5077820;28;20464;-77
2024/02/23 01:33:06;;;;;;;;;;;;;;;4.89;100.00;98781.38;5077537;28;19916;-77
2024/02/23 01:35:31;;;;;;;;;;;;;;;4.88;100.00;98789.25;5077711;28;19983;-77
2024/02/23 01:37:57;;;;;;;;;;;;;;;4.90;100.00;98787.41;5077886;28;19916;-77
2024/02/23 01:40:22;;;;;;;;;;;;;;;4.90;100.00;98784.81;5077460;28;19942;-77
2024/02/23 01:42:47;;;;;;;;;;;;;;;4.86;100.00;98789.34;5077731;28;20026;-77
2024/02/23 01:45:12;;;;;;;;;;;;;;;4.85;100.00;98790.22;5077640;28;20219;-77
2024/02/23 01:47:38;;;;;;;;;;;;;;;4.87;100.00;98797.94;5077862;28;19916;-77
2024/02/23 01:50:04;;;;;;;;;;;;;;;4.90;100.00;98797.78;5077127;28;19959;-77
2024/02/23 01:52:29;;;;;;;;;;;;;;;4.90;100.00;98788.25;5077400;28;19924;-77
2024/02/23 01:54:55;;;;;;;;;;;;;;;4.88;100.00;98797.03;5077138;28;19991;-77
2024/02/23 01:57:21;;;;;;;;;;;;;;;4.93;100.00;98797.63;5077091;28;19946;-77
2024/02/23 01:59:46;;;;;;;;;;;;;;;4.97;100.00;98801.75;5077773;28;19909;-77
2024/02/23 02:02:12;;;;;;;;;;;;;;;5.01;100.00;98800.69;5076995;28;20230;-77
2024/02/23 02:04:38;;;;;;;;;;;;;;;4.97;100.00;98800.00;5077225;28;20234;-77
2024/02/23 02:07:04;;;;;;;;;;;;;;;5.00;100.00;98809.38;5077032;28;19960;-77
2024/02/23 02:09:29;;;;;;;;;;;;;;;5.00;100.00;98805.03;5081491;28;19916;-77
2024/02/23 02:11:54;;;;;;;;;;;;;;;5.02;100.00;98801.50;5096831;28;19951;-77
2024/02/23 02:14:20;;;;;;;;;;;;;;;5.03;100.00;98801.44;5078908;28;19938;-77
2024/02/23 02:16:45;;;;;;;;;;;;;;;5.01;100.00;98808.47;5080228;28;20196;-77
2024/02/23 02:19:11;;;;;;;;;;;;;;;5.06;100.00;98808.22;5075542;28;20467;-77
2024/02/23 02:21:36;;;;;;;;;;;;;;;5.06;100.00;98816.88;5076578;28;19916;-77
2024/02/23 02:24:02;;;;;;;;;;;;;;;5.01;100.00;98803.28;5076465;28;20132;-76
2024/02/23 02:26:28;;;;;;;;;;;;;;;5.05;100.00;98809.16;5058784;28;19927;-77
2024/02/23 02:28:53;;;;;;;;;;;;;;;5.10;100.00;98809.75;5076613;28;19950;-77
2024/02/23 02:31:18;;;;;;;;;;;;;;;5.10;100.00;98813.19;5076872;28;19920;-77
2024/02/23 02:33:43;;;;;;;;;;;;;;;5.07;100.00;98813.34;5076723;28;20258;-77
2024/02/23 02:36:09;;;;;;;;;;;;;;;5.08;100.00;98817.63;5076130;28;19920;-77
2024/02/23 02:38:34;;;;;;;;;;;;;;;5.07;100.00;98808.16;5076570;28;20251;-77
2024/02/23 02:41:02;;;;;;;;;;;;;;;5.10;100.00;98814.97;5092953;28;20127;-76
2024/02/23 02:43:27;;;;;;;;;;;;;;;5.10;100.00;98817.56;5096371;28;19984;-77
2024/02/23 02:45:52;;;;;;;;;;;;;;;5.06;100.00;98811.69;5096117;28;20226;-77
2024/02/23 02:48:17;;;;;;;;;;;;;;;5.08;100.00;98809.00;5083391;28;20127;-77
2024/02/23 02:50:44;;;;;;;;;;;;;;;5.06;100.00;98811.69;5075862;28;20242;-77
2024/02/23 02:53:10;;;;;;;;;;;;;;;5.01;100.00;98805.88;5075913;28;19947;-76
2024/02/23 02:55:35;;;;;;;;;;;;;;;4.95;100.00;98811.38;5076260;28;19923;-77
2024/02/23 02:58:00;;;;;;;;;;;;;;;4.95;100.00;98807.03;5075712;28;19920;-77
2024/02/23 03:00:25;;;;;;;;;;;;;;;4.92;100.00;98808.94;5076026;28;19951;-77
2024/02/23 03:02:51;;;;;;;;;;;;;;;4.90;100.00;98818.53;5075894;28;20163;-76
2024/02/23 03:05:16;;;;;;;;;;;;;;;4.92;100.00;98816.72;5075975;28;20300;-77
2024/02/23 03:07:41;;;;;;;;;;;;;;;4.84;100.00;98811.91;5075644;28;19962;-77
2024/02/23 03:10:06;;;;;;;;;;;;;;;4.88;100.00;98821.22;5085352;28;20253;-76
2024/02/23 03:12:32;;;;;;;;;;;;;;;4.90;100.00;98832.34;5095749;28;20208;-76
2024/02/23 03:14:57;;;;;;;;;;;;;;;4.84;100.00;98842.19;5076902;28;19916;-76
2024/02/23 03:17:22;;;;;;;;;;;;;;;4.77;100.00;98828.69;5090806;28;19916;-77
2024/02/23 03:19:50;;;;;;;;;;;;;;;4.75;100.00;98828.75;5076284;28;19970;-76
2024/02/23 03:22:15;;;;;;;;;;;;;;;4.77;100.00;98831.28;5075758;28;19939;-77
2024/02/23 03:24:40;;;;;;;;;;;;;;;4.73;100.00;98827.13;5075896;28;20232;-77
2024/02/23 03:27:05;;;;;;;;;;;;;;;4.70;100.00;98832.50;5075158;28;19916;-77
2024/02/23 03:29:31;;;;;;;;;;;;;;;4.68;100.00;98835.16;5075795;28;19980;-76
2024/02/23 03:31:57;;;;;;;;;;;;;;;4.64;100.00;98835.38;5044054;28;19943;-77
2024/02/23 03:34:22;;;;;;;;;;;;;;;4.74;100.00;98834.84;5055254;28;20093;-77
2024/02/23 03:36:47;;;;;;;;;;;;;;;4.69;100.00;98849.78;5055804;28;20233;-76
2024/02/23 03:39:13;;;;;;;;;;;;;;;4.61;100.00;98842.38;5059311;28;20131;-76
2024/02/23 03:41:38;;;;;;;;;;;;;;;4.61;100.00;98836.38;5095483;28;19970;-77
2024/02/23 03:44:04;;;;;;;;;;;;;;;4.54;100.00;98841.00;5095207;28;19923;-77
2024/02/23 03:46:29;;;;;;;;;;;;;;;4.49;100.00;98840.38;5077098;28;20022;-76
2024/02/23 03:48:54;;;;;;;;;;;;;;;4.52;100.00;98835.03;5076721;28;19920;-77
2024/02/23 03:51:19;;;;;;;;;;;;;;;4.50;100.00;98831.69;5075157;28;19921;-76
2024/02/23 03:53:44;;;;;;;;;;;;;;;4.55;100.00;98824.53;5075026;28;19954;-76
2024/02/23 03:56:10;;;;;;;;;;;;;;;4.49;100.00;98844.72;5075167;28;19927;-77
2024/02/23 03:58:35;;;;;;;;;;;;;;;4.44;100.00;98839.78;5074798;28;20205;-77
2024/02/23 04:01:00;;;;;;;;;;;;;;;4.47;100.00;98847.38;5074714;28;19917;-77
2024/02/23 04:03:25;;;;;;;;;;;;;;;4.45;100.00;98841.44;5074845;28;19965;-77
2024/02/23 04:05:51;;;;;;;;;;;;;;;4.44;100.00;98839.78;5075079;28;19927;-77
2024/02/23 04:08:16;;;;;;;;;;;;;;;4.43;100.00;98841.50;5075238;28;19916;-77
2024/02/23 04:10:41;;;;;;;;;;;;;;;4.49;100.00;98839.53;5089315;28;20259;-76
2024/02/23 04:13:06;;;;;;;;;;;;;;;4.46;100.00;98837.09;5094975;28;19938;-77
2024/02/23 04:15:32;;;;;;;;;;;;;;;4.44;100.00;98834.59;5095223;28;20218;-76
2024/02/23 04:17:57;;;;;;;;;;;;;;;4.42;100.00;98837.25;5084732;28;19944;-77
2024/02/23 04:20:22;;;;;;;;;;;;;;;4.47;100.00;98843.97;5075209;28;19958;-77
2024/02/23 04:22:47;;;;;;;;;;;;;;;4.44;100.00;98842.38;5075100;28;20114;-77
2024/02/23 04:25:13;;;;;;;;;;;;;;;4.48;100.00;98840.47;5074591;28;19921;-77
2024/02/23 04:27:38;;;;;;;;;;;;;;;4.48;100.00;98843.06;5058797;28;20231;-77
2024/02/23 04:30:04;;;;;;;;;;;;;;;4.55;100.00;98862.59;5078904;28;20313;-76
2024/02/23 04:32:30;;;;;;;;;;;;;;;4.55;100.00;98847.88;5078795;28;19924;-77
2024/02/23 04:34:55;;;;;;;;;;;;;;;4.57;100.00;98851.22;5078556;28;19948;-76
2024/02/23 04:37:20;;;;;;;;;;;;;;;4.65;100.00;98862.97;5078692;28;19909;-77
2024/02/23 04:39:46;;;;;;;;;;;;;;;4.60;100.00;98861.47;5080353;28;19986;-76
2024/02/23 04:42:11;;;;;;;;;;;;;;;4.60;100.00;98858.00;5078307;28;20164;-77
2024/02/23 04:44:36;;;;;;;;;;;;;;;4.61;100.00;98857.94;5078665;28;19971;-76
2024/02/23 04:47:02;;;;;;;;;;;;;;;4.66;100.00;98862.91;5060519;28;20127;-77
2024/02/23 04:49:27;;;;;;;;;;;;;;;4.68;100.00;98853.31;5078841;28;19916;-76
2024/02/23 04:51:53;;;;;;;;;;;;;;;4.69;100.00;98856.72;5078250;28;19921;-77
2024/02/23 04:54:18;;;;;;;;;;;;;;;4.70;100.00;98846.28;5078508;28;19916;-77
2024/02/23 04:56:44;;;;;;;;;;;;;;;4.68;100.00;98842.94;5078181;28;19920;-77
2024/02/23 04:59:09;;;;;;;;;;;;;;;4.77;100.00;98849.44;5078201;28;19916;-76
2024/02/23 05:01:37;;;;;;;;;;;;;;;4.77;100.00;98846.84;5078529;28;19935;-76
2024/02/23 05:04:03;;;;;;;;;;;;;;;4.80;100.00;98855.31;5078288;28;20219;-76
2024/02/23 05:06:28;;;;;;;;;;;;;;;4.78;100.00;98849.38;5060295;28;19924;-77
2024/02/23 05:08:53;;;;;;;;;;;;;;;4.77;100.00;98859.81;5077888;28;19917;-77
2024/02/23 05:11:19;;;;;;;;;;;;;;;4.88;100.00;98861.88;5097915;28;19920;-77
2024/02/23 05:13:44;;;;;;;;;;;;;;;4.92;100.00;98856.44;5098681;28;20203;-77
2024/02/23 05:16:09;;;;;;;;;;;;;;;4.86;100.00;98854.16;5098302;28;19916;-77
2024/02/23 05:18:35;;;;;;;;;;;;;;;4.87;100.00;98847.22;5082678;28;20119;-77
2024/02/23 05:21:00;;;;;;;;;;;;;;;4.86;100.00;98842.94;5077971;28;19965;-77
2024/02/23 05:23:25;;;;;;;;;;;;;;;4.86;100.00;98848.97;5060284;28;19920;-77
2024/02/23 05:25:51;;;;;;;;;;;;;;;4.88;100.00;98839.38;5059879;28;19917;-77
2024/02/23 05:28:16;;;;;;;;;;;;;;;4.85;100.00;98839.50;5078233;28;20120;-77
2024/02/23 05:30:41;;;;;;;;;;;;;;;4.89;100.00;98835.84;5078054;28;19925;-77
2024/02/23 05:33:07;;;;;;;;;;;;;;;4.84;100.00;98837.84;5078250;28;19922;-77
2024/02/23 05:35:32;;;;;;;;;;;;;;;4.86;100.00;98835.16;5077664;28;19917;-76
2024/02/23 05:37:58;;;;;;;;;;;;;;;4.85;100.00;98836.91;5076958;28;19917;-77
2024/02/23 05:40:23;;;;;;;;;;;;;;;4.87;100.00;98836.84;5089382;28;19931;-77
2024/02/23 05:42:49;;;;;;;;;;;;;;;4.83;100.00;98836.16;5098155;28;20198;-77
2024/02/23 05:45:14;;;;;;;;;;;;;;;4.89;100.00;98829.81;5097827;28;20107;-77
2024/02/23 05:47:40;;;;;;;;;;;;;;;4.91;100.00;98826.25;5089940;28;20325;-77
2024/02/23 05:50:07;;;;;;;;;;;;;;;4.88;100.00;98818.63;5077734;28;20206;-77
2024/02/23 05:52:33;;;;;;;;;;;;;;;4.87;100.00;98819.53;5077769;28;19921;-77
2024/02/23 05:54:59;;;;;;;;;;;;;;;4.86;100.00;98825.63;5077268;28;19915;-77
2024/02/23 05:57:25;;;;;;;;;;;;;;;4.90;100.00;98840.13;5077095;28;19995;-77
2024/02/23 05:59:51;;;;;;;;;;;;;;;4.94;100.00;98818.31;5077040;28;19970;-77
2024/02/23 06:02:16;;;;;;;;;;;;;;;4.97;100.00;98812.13;5059211;28;19943;-77
2024/02/23 06:04:42;;;;;;;;;;;;;;;4.97;100.00;98809.53;5076989;28;20159;-77
2024/02/23 06:07:07;;;;;;;;;;;;;;;4.93;100.00;98808.84;5077179;28;20294;-77
2024/02/23 06:09:32;;;;;;;;;;;;;;;4.89;100.00;98817.69;5081867;28;19916;-76
2024/02/23 06:11:57;;;;;;;;;;;;;;;4.90;100.00;98823.72;5097302;28;20199;-76
2024/02/23 06:14:23;;;;;;;;;;;;;;;4.91;100.00;98834.03;5097000;28;19987;-77
2024/02/23 06:16:48;;;;;;;;;;;;;;;4.92;100.00;98834.88;5096937;28;19919;-76
2024/02/23 06:19:14;;;;;;;;;;;;;;;4.95;100.00;98832.97;5076640;28;19927;-76
2024/02/23 06:21:39;;;;;;;;;;;;;;;4.99;100.00;98826.69;5058894;28;19916;-76
2024/02/23 06:24:04;;;;;;;;;;;;;;;4.95;100.00;98829.53;5076635;28;19943;-76
2024/02/23 06:26:29;;;;;;;;;;;;;;;4.98;100.00;98819.00;5076999;28;19917;-76
2024/02/23 06:28:55;;;;;;;;;;;;;;;4.97;100.00;98820.75;5057933;28;20212;-76
2024/02/23 06:31:20;;;;;;;;;;;;;;;4.91;100.00;98835.78;5076868;28;19958;-77
2024/02/23 06:33:48;;;;;;;;;;;;;;;4.94;100.00;98823.50;5076156;28;19935;-77
2024/02/23 06:36:14;;;;;;;;;;;;;;;4.95;100.00;98834.72;5076378;28;20096;-77
2024/02/23 06:38:39;;;;;;;;;;;;;;;5.00;100.00;98820.63;5076099;28;20488;-78
2024/02/23 06:41:05;;;;;;;;;;;;;;;4.99;100.00;98815.50;5077074;28;19932;-77
2024/02/23 06:43:30;;;;;;;;;;;;;;;5.03;100.00;98814.41;5074468;28;19951;-77
2024/02/23 06:45:56;;;;;;;;;;;;;;;4.97;100.00;98822.53;5075668;28;19939;-77
2024/02/23 06:48:21;;;;;;;;;;;;;;;4.87;100.00;98813.50;5076067;28;19916;-77
2024/02/23 06:50:46;;;;;;;;;;;;;;;4.92;100.00;98827.91;5074132;28;20009;-77
2024/02/23 06:53:12;;;;;;;;;;;;;;;4.96;100.00;98828.59;5071066;28;19991;-77
2024/02/23 06:55:37;;;;;;;;;;;;;;;4.90;100.00;98816.78;5071716;28;19967;-77
2024/02/23 06:58:04;;;;;;;;;;;;;;;4.92;100.00;98819.31;5075326;28;19921;-77
2024/02/23 07:00:30;;;;;;;;;;;;;;;4.92;100.00;98827.91;5072212;28;20116;-77
2024/02/23 07:02:55;;;;;;;;;;;;;;;4.96;100.00;98816.47;5073388;28;19927;-77
2024/02/23 07:05:20;;;;;;;;;;;;;;;4.96;100.00;98826.00;5072338;28;19987;-77
2024/02/23 07:07:46;;;;;;;;;;;;;;;4.94;100.00;98818.31;5071521;28;19981;-77
2024/02/23 07:10:12;;;;;;;;;;;;;;;4.97;100.00;98819.91;5076775;28;19923;-77
2024/02/23 07:12:37;;;;;;;;;;;;;;;4.99;100.00;98818.09;5069173;28;19920;-77
2024/02/23 07:15:02;;;;;;;;;;;;;;;4.99;100.00;98816.31;5056762;28;19924;-77
2024/02/23 07:17:30;;;;;;;;;;;;;;;5.01;100.00;98824.03;5050373;28;19947;-77
2024/02/23 07:20:03;;;;;;;;;;;;;;;5.01;100.00;98818.84;5054573;28;20013;-77
2024/02/23 07:22:28;;;;;;;;;;;;;;;4.96;100.00;98821.66;5055259;28;19917;-77
2024/02/23 07:24:53;;;;;;;;;;;;;;;4.96;100.00;98816.47;5054230;28;19916;-77
2024/02/23 07:27:18;;;;;;;;;;;;;;;4.98;100.00;98809.47;5054922;28;20212;-77
2024/02/23 07:29:44;;;;;;;;;;;;;;;5.02;100.00;98804.09;5054517;28;20246;-77
2024/02/23 07:32:10;;;;;;;;;;;;;;;5.05;100.00;98807.38;5037067;28;20149;-77
2024/02/23 07:34:35;;;;;;;;;;;;;;;4.98;100.00;98809.47;5055107;28;19917;-77
2024/02/23 07:37:00;;;;;;;;;;;;;;;4.94;100.00;98817.47;5054709;28;19913;-77
2024/02/23 07:39:25;;;;;;;;;;;;;;;4.82;100.00;98803.38;5044217;28;19935;-77
2024/02/23 07:41:51;;;;;;;;;;;;;;;4.78;100.00;98825.16;5076149;28;20548;-78
2024/02/23 07:44:16;;;;;;;;;;;;;;;4.78;100.00;98817.38;5095065;28;19920;-78
2024/02/23 07:46:41;;;;;;;;;;;;;;;4.78;100.00;98807.00;5076767;28;20135;-78
2024/02/23 07:49:07;;;;;;;;;;;;;;;4.81;100.00;98799.09;5075116;28;19916;-78
2024/02/23 07:51:32;;;;;;;;;;;;;;;4.81;100.00;98794.72;5056967;28;19973;-78
2024/02/23 07:53:57;;;;;;;;;;;;;;;4.81;100.00;98801.69;5075741;28;19987;-77
2024/02/23 07:56:23;;;;;;;;;;;;;;;4.78;100.00;98797.50;5075592;28;19908;-77
2024/02/23 07:58:48;;;;;;;;;;;;;;;4.86;100.00;98797.13;5075799;28;19916;-77
2024/02/23 08:01:16;;;;;;;;;;;;;;;4.88;100.00;98797.03;5075651;28;20111;-77
2024/02/23 08:03:42;;;;;;;;;;;;;;;4.87;100.00;98782.38;5075846;28;19920;-77
2024/02/23 08:06:08;;;;;;;;;;;;;;;4.88;100.00;98792.69;5075567;28;19917;-78
2024/02/23 08:08:34;;;;;;;;;;;;;;;4.88;100.00;98802.22;5075565;28;19916;-78
2024/02/23 08:11:03;;;;;;;;;;;;;;;4.89;100.00;98799.53;5092850;28;20281;-78
2024/02/23 08:13:29;;;;;;;;;;;;;;;4.85;100.00;98802.38;5095848;28;20241;-78
2024/02/23 08:15:54;;;;;;;;;;;;;;;4.87;100.00;98788.41;5077755;28;20329;-78
2024/02/23 08:18:19;;;;;;;;;;;;;;;4.83;100.00;98820.59;5082630;28;19923;-78
2024/02/23 08:20:44;;;;;;;;;;;;;;;4.81;100.00;98820.66;5057412;28;19916;-78
2024/02/23 08:23:09;;;;;;;;;;;;;;;4.86;100.00;98814.41;5075563;28;19923;-77
2024/02/23 08:25:36;;;;;;;;;;;;;;;4.87;100.00;98806.56;5075778;28;19931;-77
2024/02/23 08:28:01;;;;;;;;;;;;;;;4.83;100.00;98810.22;5075101;28;19916;-78
2024/02/23 08:30:26;;;;;;;;;;;;;;;4.85;100.00;98820.53;5075700;28;19983;-78
2024/02/23 08:32:51;;;;;;;;;;;;;;;4.87;100.00;98822.13;5075892;28;19917;-78
2024/02/23 08:35:17;;;;;;;;;;;;;;;4.90;100.00;98814.19;5075567;28;20180;-77
2024/02/23 08:37:42;;;;;;;;;;;;;;;4.87;100.00;98809.16;5075415;28;20002;-78
2024/02/23 08:40:08;;;;;;;;;;;;;;;4.83;100.00;98819.75;5084470;28;20191;-78
2024/02/23 08:42:33;;;;;;;;;;;;;;;4.77;100.00;98803.59;5095857;28;20053;-77
2024/02/23 08:44:58;;;;;;;;;;;;;;;4.81;100.00;98812.88;5095540;28;19927;-78
2024/02/23 08:47:24;;;;;;;;;;;;;;;4.78;100.00;98802.69;5090098;28;19923;-77
2024/02/23 08:49:50;;;;;;;;;;;;;;;4.78;100.00;98802.69;5075481;28;20215;-78
2024/02/23 08:52:15;;;;;;;;;;;;;;;4.80;100.00;98815.53;5075775;28;19913;-78
2024/02/23 08:54:40;;;;;;;;;;;;;;;4.85;100.00;98779.84;5075608;28;20011;-78
2024/02/23 08:57:05;;;;;;;;;;;;;;;4.85;100.00;98803.19;5074900;28;19931;-77
2024/02/23 08:59:30;;;;;;;;;;;;;;;4.91;100.00;98796.88;5074389;28;19965;-77
2024/02/23 09:01:56;;;;;;;;;;;;;;;4.85;100.00;98798.00;5074275;28;19924;-77
2024/02/23 09:04:21;;;;;;;;;;;;;;;4.92;100.00;98793.38;5074752;28;19953;-77
2024/02/23 09:06:46;;;;;;;;;;;;;;;4.95;100.00;98778.50;5074548;28;19916;-77
2024/02/23 09:09:12;;;;;;;;;;;;;;;4.96;100.00;98798.31;5058586;28;20173;-78
2024/02/23 09:11:37;;;;;;;;;;;;;;;5.05;100.00;98783.22;5094469;28;19927;-77
2024/02/23 09:14:03;;;;;;;;;;;;;;;5.08;100.00;98803.81;5096902;28;19916;-77
2024/02/23 09:16:28;;;;;;;;;;;;;;;5.06;100.00;98795.25;5098352;28;19916;-77
2024/02/23 09:18:53;;;;;;;;;;;;;;;5.09;100.00;98788.16;5079866;28;19983;-77
2024/02/23 09:21:18;;;;;;;;;;;;;;;5.14;100.00;98806.94;5078157;28;19923;-77
2024/02/23 09:23:44;;;;;;;;;;;;;;;5.17;100.00;98804.19;5059830;28;20027;-77
2024/02/23 09:26:12;;;;;;;;;;;;;;;5.17;100.00;98803.34;5059581;28;19998;-77
2024/02/23 09:28:38;;;;;;;;;;;;;;;5.15;100.00;98807.78;5077662;28;20089;-77
2024/02/23 09:31:04;;;;;;;;;;;;;;;5.17;100.00;98811.13;5077387;28;20128;-77
2024/02/23 09:33:30;;;;;;;;;;;;;;;5.20;100.00;98808.38;5077577;28;19996;-77
2024/02/23 09:35:55;;;;;;;;;;;;;;;5.25;100.00;98813.34;5077615;28;19908;-77
2024/02/23 09:38:20;;;;;;;;;;;;;;;5.31;100.00;98805.22;5077806;28;20089;-77
2024/02/23 09:40:46;;;;;;;;;;;;;;;5.34;100.00;98818.88;5092028;28;19920;-77
2024/02/23 09:43:12;;;;;;;;;;;;;;;5.33;100.00;98819.81;5097412;28;19920;-77
2024/02/23 09:45:37;;;;;;;;;;;;;;;5.38;100.00;98824.75;5097645;28;19923;-77
2024/02/23 09:48:03;;;;;;;;;;;;;;;5.37;100.00;98820.50;5086797;28;19924;-76
2024/02/23 09:50:29;;;;;;;;;;;;;;;5.43;100.00;98827.97;5077383;28;19923;-76
2024/02/23 09:52:56;;;;;;;;;;;;;;;5.50;100.00;98844.06;5077463;28;19917;-76
2024/02/23 09:55:22;;;;;;;;;;;;;;;5.46;100.00;98847.75;5077682;28;19961;-77
2024/02/23 09:57:47;;;;;;;;;;;;;;;5.51;100.00;98851.78;5072002;28;19974;-77
2024/02/23 10:00:15;;;;;;;;;;;;;;;5.50;100.00;98839.72;5038154;28;20112;-77
2024/02/23 10:02:41;;;;;;;;;;;;;;;5.56;100.00;98843.75;5062371;28;19926;-77
2024/02/23 10:05:07;;;;;;;;;;;;;;;5.61;100.00;98844.34;5088588;28;19948;-77
2024/02/23 10:07:33;;;;;;;;;;;;;;;5.60;100.00;98840.06;5070333;28;19915;-77
2024/02/23 10:09:58;;;;;;;;;;;;;;;5.64;100.00;98839.00;5087975;28;20230;-77
2024/02/23 10:12:23;;;;;;;;;;;;;;;5.75;100.00;98843.63;5071974;28;19991;-77
2024/02/23 10:14:49;;;;;;;;;;;;;;;5.82;100.00;98847.59;5090475;28;20351;-77
2024/02/23 10:17:14;;;;;;;;;;;;;;;5.88;100.00;98854.22;5093931;28;19987;-77
2024/02/23 10:19:39;;;;;;;;;;;;;;;5.90;100.00;98870.56;5092900;28;20301;-77
2024/02/23 10:22:04;;;;;;;;;;;;;;;5.94;100.00;98846.09;5093220;28;20250;-77
2024/02/23 10:24:30;;;;;;;;;;;;;;;5.95;100.00;98879.81;5091579;28;20212;-77
2024/02/23 10:26:55;;;;;;;;;;;;;;;5.98;100.00;98871.00;5092784;28;19920;-77
2024/02/23 10:29:20;;;;;;;;;;;;;;;6.02;100.00;98867.34;5091872;28;19947;-77
2024/02/23 10:31:49;;;;;;;;;;;;;;;6.04;100.00;98870.69;5093335;28;20005;-77
2024/02/23 10:34:14;;;;;;;;;;;;;;;6.09;100.00;98871.28;5090158;28;19923;-77
2024/02/23 10:36:44;;;;;;;;;;;;;;;6.16;100.00;98879.59;5072741;28;20111;-77
2024/02/23 10:39:10;;;;;;;;;;;;;;;6.20;100.00;98872.47;5091246;28;19920;-77
2024/02/23 10:41:39;;;;;;;;;;;;;;;6.17;100.00;98877.81;5093006;28;20253;-77
2024/02/23 10:44:04;;;;;;;;;;;;;;;6.19;100.00;98900.22;5092199;28;20452;-76
2024/02/23 10:46:31;;;;;;;;;;;;;;;6.16;100.00;98905.56;5091505;28;19920;-76
2024/02/23 10:48:59;;;;;;;;;;;;;;;6.12;100.00;98902.31;5091370;28;19983;-77
2024/02/23 10:51:24;;;;;;;;;;;;;;;6.17;100.00;98899.47;5087328;28;19924;-77
2024/02/23 10:53:50;;;;;;;;;;;;;;;6.13;100.00;98900.53;5087423;28;19951;-77
2024/02/23 10:56:15;;;;;;;;;;;;;;;6.12;100.00;98920.50;5089947;28;19920;-76
2024/02/23 10:58:40;;;;;;;;;;;;;;;6.07;100.00;98891.31;5087814;28;19912;-77
2024/02/23 11:01:07;;;;;;;;;;;;;;;6.12;100.00;98917.91;5065207;28;19920;-77
2024/02/23 11:03:34;;;;;;;;;;;;;;;6.14;100.00;98918.66;5088672;28;20089;-77
2024/02/23 11:06:00;;;;;;;;;;;;;;;6.13;100.00;98926.53;5062118;28;19927;-77
2024/02/23 11:08:28;;;;;;;;;;;;;;;6.13;100.00;98926.53;5061953;28;20007;-77
2024/02/23 11:10:54;;;;;;;;;;;;;;;6.16;100.00;98918.56;5088454;28;19928;-76
2024/02/23 11:13:30;;;;;;;;;;;;;;;6.19;100.00;98918.41;5092530;28;19950;-77
2024/02/23 11:16:01;;;;;;;;;;;;;;;6.18;100.00;98919.31;5092970;28;20172;-77
2024/02/23 11:18:29;;;;;;;;;;;;;;;6.17;100.00;98925.47;5090632;28;19920;-77
2024/02/23 11:20:56;;;;;;;;;;;;;;;6.17;100.00;98922.84;5090518;28;20044;-77
2024/02/23 11:23:21;;;;;;;;;;;;;;;6.23;100.00;98925.13;5087708;28;19920;-77
2024/02/23 11:26:02;;;;;;;;;;;;;;;6.28;100.00;98930.91;5073047;28;20058;-77
2024/02/23 11:28:27;;;;;;;;;;;;;;;6.28;100.00;98943.91;5089379;28;19982;-77
2024/02/23 11:30:53;;;;;;;;;;;;;;;6.28;100.00;98945.69;5090811;28;20211;-77
2024/02/23 11:33:34;;;;;;;;;;;;;;;6.31;100.00;98940.31;5092439;28;19923;-77
2024/02/23 11:36:09;;;;;;;;;;;;;;;6.32;100.00;98935.03;5090115;28;19919;-76
2024/02/23 11:38:34;;;;;;;;;;;;;;;6.35;100.00;98936.63;5099432;28;19912;-76
2024/02/23 11:41:01;;;;;;;;;;;;;;;6.38;100.00;98944.25;5085070;28;19954;-76
2024/02/23 11:43:28;;;;;;;;;;;;;;;6.44;100.00;98940.47;5070817;28;20149;-76
2024/02/23 11:45:53;;;;;;;;;;;;;;;6.48;100.00;98939.41;5090495;28;19933;-76
2024/02/23 11:48:19;;;;;;;;;;;;;;;6.54;100.00;98949.47;5092273;28;19923;-77
2024/02/23 11:50:44;;;;;;;;;;;;;;;6.53;100.00;98958.19;5090584;28;19919;-77
2024/02/23 11:53:10;;;;;;;;;;;;;;;6.58;100.00;98948.38;5091870;28;19951;-77
2024/02/23 11:55:35;;;;;;;;;;;;;;;6.61;100.00;98947.41;5084869;28;19927;-77
2024/02/23 11:58:00;;;;;;;;;;;;;;;6.58;100.00;98937.16;5091133;28;20268;-76
2024/02/23 12:00:26;;;;;;;;;;;;;;;6.54;100.00;98949.47;5089957;28;19947;-77
2024/02/23 12:02:51;;;;;;;;;;;;;;;6.53;100.00;98946.03;5090045;28;20116;-77
2024/02/23 12:05:16;;;;;;;;;;;;;;;6.55;100.00;98938.16;5073509;28;19922;-77
2024/02/23 12:07:42;;;;;;;;;;;;;;;6.64;100.00;98949.81;5084728;28;19993;-77
2024/02/23 12:10:08;;;;;;;;;;;;;;;6.71;100.00;98941.59;5084154;28;19939;-77
2024/02/23 12:12:33;;;;;;;;;;;;;;;6.76;100.00;98930.09;5088909;28;19920;-77
2024/02/23 12:14:58;;;;;;;;;;;;;;;6.79;100.00;98948.16;5088506;28;19923;-77
2024/02/23 12:17:26;;;;;;;;;;;;;;;6.84;100.00;98954.78;5088926;28;19920;-77
2024/02/23 12:19:57;;;;;;;;;;;;;;;6.87;100.00;98954.59;5084389;28;19938;-76
2024/02/23 12:22:24;;;;;;;;;;;;;;;6.89;100.00;98960.56;5088679;28;20212;-77
2024/02/23 12:24:49;;;;;;;;;;;;;;;6.85;100.00;98951.22;5088088;28;19916;-76
2024/02/23 12:27:16;;;;;;;;;;;;;;;6.86;100.00;98952.09;5089383;28;20229;-77
2024/02/23 12:29:41;;;;;;;;;;;;;;;6.89;100.00;98954.50;5085022;28;19927;-77
2024/02/23 12:32:10;;;;;;;;;;;;;;;6.89;100.00;98954.50;5087087;28;19924;-77
2024/02/23 12:34:35;;;;;;;;;;;;;;;6.90;100.00;98970.03;5086138;28;20227;-77
2024/02/23 12:37:02;;;;;;;;;;;;;;;6.90;100.00;98964.84;5063953;28;20006;-76
2024/02/23 12:39:27;;;;;;;;;;;;;;;6.90;100.00;98964.84;5087378;28;20111;-77